createdAt,value
2022-11-25T00:01:03.230Z,74
2022-11-25T00:03:17.729Z,74
2022-11-25T00:04:24.569Z,74
2022-11-25T00:05:31.692Z,75
2022-11-25T00:06:38.299Z,75
2022-11-25T00:07:45.594Z,75
2022-11-25T00:08:52.777Z,75
2022-11-25T00:09:59.566Z,75
2022-11-25T00:11:06.702Z,76
2022-11-25T00:13:20.344Z,76
2022-11-25T00:14:27.588Z,76
2022-11-25T00:15:34.629Z,76
2022-11-25T00:16:47.710Z,76
2022-11-25T00:17:48.264Z,77
2022-11-25T00:18:55.420Z,77
2022-11-25T00:20:02.515Z,77
2022-11-25T00:21:09.573Z,77
2022-11-25T00:22:16.710Z,77
2022-11-25T00:23:23.243Z,78
2022-11-25T00:24:30.416Z,78
2022-11-25T00:25:37.578Z,78
2022-11-25T00:26:44.649Z,78
2022-11-25T00:27:51.709Z,78
2022-11-25T00:28:58.343Z,78
2022-11-25T00:30:05.431Z,78
2022-11-25T00:31:12.522Z,79
2022-11-25T00:32:19.600Z,79
2022-11-25T00:33:26.667Z,79
2022-11-25T00:35:40.360Z,79
2022-11-25T00:37:54.681Z,80
2022-11-25T00:39:01.164Z,80
2022-11-25T00:41:15.403Z,80
2022-11-25T00:42:22.480Z,80
2022-11-25T00:43:29.615Z,80
2022-11-25T00:44:37.191Z,80
2022-11-25T00:45:43.403Z,81
2022-11-25T00:46:50.455Z,81
2022-11-25T00:47:57.518Z,81
2022-11-25T00:49:04.621Z,82
2022-11-25T00:50:11.185Z,82
2022-11-25T00:51:18.357Z,82
2022-11-25T00:52:25.414Z,83
2022-11-25T00:53:32.516Z,83
2022-11-25T00:54:39.633Z,83
2022-11-25T00:55:46.406Z,83
2022-11-25T00:56:53.340Z,83
2022-11-25T00:58:00.388Z,83
2022-11-25T00:59:07.542Z,84
2022-11-25T01:00:14.641Z,84
2022-11-25T01:01:21.371Z,84
2022-11-25T01:02:28.432Z,84
2022-11-25T01:03:35.491Z,84
2022-11-25T01:04:42.503Z,84
2022-11-25T01:05:49.671Z,85
2022-11-25T01:06:56.234Z,85
2022-11-25T01:08:03.378Z,84
2022-11-25T01:09:10.446Z,84
2022-11-25T01:10:17.542Z,84
2022-11-25T01:11:24.702Z,84
2022-11-25T01:12:31.200Z,85
2022-11-25T01:13:38.357Z,85
2022-11-25T01:14:46.492Z,85
2022-11-25T01:15:52.577Z,85
2022-11-25T01:16:59.751Z,85
2022-11-25T01:19:13.330Z,85
2022-11-25T01:20:20.476Z,85
2022-11-25T01:21:27.595Z,85
2022-11-25T01:22:34.660Z,86
2022-11-25T01:23:41.251Z,86
2022-11-25T01:24:48.357Z,86
2022-11-25T01:25:55.486Z,86
2022-11-25T01:27:02.563Z,86
2022-11-25T01:28:09.710Z,86
2022-11-25T01:29:16.276Z,86
2022-11-25T01:31:30.619Z,86
2022-11-25T01:32:37.563Z,86
2022-11-25T01:33:44.762Z,86
2022-11-25T01:34:51.241Z,86
2022-11-25T01:35:58.400Z,86
2022-11-25T01:37:05.534Z,86
2022-11-25T01:39:19.688Z,87
2022-11-25T01:40:26.272Z,87
2022-11-25T01:41:33.449Z,87
2022-11-25T01:42:40.480Z,87
2022-11-25T01:43:47.639Z,87
2022-11-25T01:44:54.748Z,87
2022-11-25T01:46:01.373Z,87
2022-11-25T01:47:08.411Z,87
2022-11-25T01:48:15.534Z,87
2022-11-25T01:49:22.664Z,87
2022-11-25T01:50:29.767Z,87
2022-11-25T01:51:36.369Z,87
2022-11-25T01:52:43.401Z,87
2022-11-25T01:53:50.519Z,87
2022-11-25T01:54:57.679Z,87
2022-11-25T01:56:04.812Z,87
2022-11-25T01:57:11.266Z,87
2022-11-25T01:58:18.381Z,87
2022-11-25T02:00:32.820Z,87
2022-11-25T02:01:39.853Z,87
2022-11-25T02:02:46.541Z,87
2022-11-25T02:03:53.422Z,87
2022-11-25T02:05:00.511Z,87
2022-11-25T02:06:07.684Z,87
2022-11-25T02:07:15.308Z,87
2022-11-25T02:08:21.339Z,87
2022-11-25T02:09:28.413Z,87
2022-11-25T02:10:36.077Z,87
2022-11-25T02:11:42.607Z,87
2022-11-25T02:12:49.741Z,87
2022-11-25T02:13:56.377Z,87
2022-11-25T02:15:03.395Z,87
2022-11-25T02:16:10.688Z,87
2022-11-25T02:17:17.636Z,87
2022-11-25T02:18:24.272Z,86
2022-11-25T02:19:31.322Z,86
2022-11-25T02:20:38.458Z,86
2022-11-25T02:21:45.552Z,86
2022-11-25T02:22:53.984Z,86
2022-11-25T02:23:59.260Z,86
2022-11-25T02:25:06.353Z,86
2022-11-25T02:26:13.513Z,86
2022-11-25T02:27:20.509Z,86
2022-11-25T02:28:27.647Z,86
2022-11-25T02:29:34.278Z,86
2022-11-25T02:30:41.323Z,86
2022-11-25T02:31:48.596Z,86
2022-11-25T02:32:55.633Z,86
2022-11-25T02:34:02.652Z,86
2022-11-25T02:35:09.244Z,85
2022-11-25T02:36:16.432Z,85
2022-11-25T02:37:23.483Z,85
2022-11-25T02:38:31.102Z,85
2022-11-25T02:39:37.690Z,85
2022-11-25T02:42:58.517Z,85
2022-11-25T02:44:05.625Z,85
2022-11-25T02:45:12.640Z,85
2022-11-25T02:46:22.508Z,85
2022-11-25T02:47:26.385Z,85
2022-11-25T02:49:06.940Z,85
2022-11-25T02:49:40.576Z,85
2022-11-25T02:50:47.728Z,85
2022-11-25T02:51:54.285Z,85
2022-11-25T02:53:01.362Z,85
2022-11-25T02:54:08.547Z,85
2022-11-25T02:55:15.578Z,85
2022-11-25T02:56:22.762Z,85
2022-11-25T02:57:29.293Z,85
2022-11-25T02:59:43.479Z,85
2022-11-25T03:00:50.677Z,85
2022-11-25T03:01:57.720Z,85
2022-11-25T03:03:04.341Z,85
2022-11-25T03:04:11.352Z,85
2022-11-25T03:05:18.522Z,85
2022-11-25T03:07:32.780Z,85
2022-11-25T03:08:39.445Z,85
2022-11-25T03:09:46.387Z,85
2022-11-25T03:10:53.482Z,85
2022-11-25T03:12:00.640Z,85
2022-11-25T03:13:07.735Z,84
2022-11-25T03:14:14.333Z,84
2022-11-25T03:15:21.369Z,84
2022-11-25T03:16:28.691Z,84
2022-11-25T03:17:35.659Z,84
2022-11-25T03:18:42.164Z,84
2022-11-25T03:19:49.349Z,84
2022-11-25T03:20:56.413Z,84
2022-11-25T03:23:10.653Z,84
2022-11-25T03:24:17.206Z,84
2022-11-25T03:25:24.348Z,84
2022-11-25T03:26:31.459Z,84
2022-11-25T03:27:38.529Z,84
2022-11-25T03:28:45.626Z,84
2022-11-25T03:29:52.231Z,84
2022-11-25T03:30:59.340Z,84
2022-11-25T03:32:09.493Z,84
2022-11-25T03:33:13.505Z,84
2022-11-25T03:35:28.325Z,84
2022-11-25T03:36:34.522Z,84
2022-11-25T03:37:41.469Z,84
2022-11-25T03:38:48.582Z,84
2022-11-25T03:39:55.640Z,84
2022-11-25T03:41:02.241Z,84
2022-11-25T03:42:09.432Z,84
2022-11-25T03:43:16.511Z,84
2022-11-25T03:44:23.521Z,84
2022-11-25T03:46:37.324Z,84
2022-11-25T03:47:44.371Z,84
2022-11-25T03:48:51.454Z,84
2022-11-25T03:49:58.601Z,84
2022-11-25T03:51:05.683Z,84
2022-11-25T03:52:12.316Z,84
2022-11-25T03:54:26.470Z,84
2022-11-25T03:55:33.542Z,83
2022-11-25T03:56:40.732Z,83
2022-11-25T03:57:47.299Z,84
2022-11-25T03:58:54.398Z,83
2022-11-25T04:00:01.437Z,83
2022-11-25T04:01:08.601Z,83
2022-11-25T04:02:15.811Z,84
2022-11-25T04:04:29.429Z,83
2022-11-25T04:05:36.464Z,83
2022-11-25T04:06:43.612Z,83
2022-11-25T04:07:56.303Z,83
2022-11-25T04:08:57.303Z,83
2022-11-25T04:10:04.414Z,83
2022-11-25T04:11:11.482Z,83
2022-11-25T04:12:18.622Z,83
2022-11-25T04:13:25.700Z,83
2022-11-25T04:14:32.304Z,83
2022-11-25T04:15:39.419Z,83
2022-11-25T04:16:46.556Z,83
2022-11-25T04:17:53.580Z,83
2022-11-25T04:19:00.691Z,83
2022-11-25T04:20:07.310Z,83
2022-11-25T04:21:14.387Z,83
2022-11-25T04:22:21.558Z,83
2022-11-25T04:23:28.610Z,83
2022-11-25T04:24:36.001Z,83
2022-11-25T04:25:42.304Z,83
2022-11-25T04:26:49.493Z,83
2022-11-25T04:27:56.552Z,83
2022-11-25T04:29:03.581Z,83
2022-11-25T04:30:10.207Z,83
2022-11-25T04:31:17.534Z,83
2022-11-25T04:32:24.515Z,84
2022-11-25T04:33:31.480Z,84
2022-11-25T04:34:38.683Z,84
2022-11-25T04:35:45.171Z,84
2022-11-25T04:36:52.347Z,84
2022-11-25T04:37:59.447Z,84
2022-11-25T04:39:06.532Z,84
2022-11-25T04:40:13.588Z,84
2022-11-25T04:41:20.218Z,84
2022-11-25T04:42:27.321Z,84
2022-11-25T04:43:34.570Z,84
2022-11-25T04:46:13.093Z,84
2022-11-25T04:46:55.266Z,83
2022-11-25T04:48:02.362Z,83
2022-11-25T04:50:16.571Z,83
2022-11-25T04:51:23.604Z,83
2022-11-25T04:52:30.267Z,83
2022-11-25T04:53:37.335Z,83
2022-11-25T04:54:44.491Z,83
2022-11-25T04:55:51.504Z,83
2022-11-25T04:56:58.706Z,82
2022-11-25T04:58:05.208Z,82
2022-11-25T04:59:12.361Z,82
2022-11-25T05:00:19.500Z,82
2022-11-25T05:01:26.647Z,81
2022-11-25T05:02:33.705Z,81
2022-11-25T05:03:46.569Z,81
2022-11-25T05:04:47.346Z,81
2022-11-25T05:09:15.361Z,80
2022-11-25T05:10:22.340Z,80
2022-11-25T05:11:29.494Z,80
2022-11-25T05:12:36.617Z,80
2022-11-25T05:13:43.639Z,80
2022-11-25T05:14:50.279Z,80
2022-11-25T05:15:57.364Z,80
2022-11-25T05:17:04.622Z,80
2022-11-25T05:18:11.548Z,80
2022-11-25T05:19:18.693Z,80
2022-11-25T05:20:25.424Z,80
2022-11-25T05:21:32.349Z,80
2022-11-25T05:22:39.507Z,79
2022-11-25T05:23:48.056Z,79
2022-11-25T05:24:53.701Z,79
2022-11-25T05:27:07.462Z,79
2022-11-25T05:28:14.499Z,79
2022-11-25T05:29:21.551Z,79
2022-11-25T05:30:28.767Z,79
2022-11-25T05:31:35.568Z,79
2022-11-25T05:32:42.390Z,79
2022-11-25T05:33:49.493Z,79
2022-11-25T05:34:56.620Z,79
2022-11-25T05:36:03.682Z,79
2022-11-25T05:37:10.336Z,79
2022-11-25T05:38:17.428Z,79
2022-11-25T05:39:24.524Z,78
2022-11-25T05:40:31.634Z,78
2022-11-25T05:41:38.719Z,78
2022-11-25T05:42:45.348Z,78
2022-11-25T05:43:52.459Z,78
2022-11-25T05:44:59.506Z,78
2022-11-25T05:46:06.712Z,78
2022-11-25T05:47:13.735Z,78
2022-11-25T05:48:20.269Z,78
2022-11-25T05:49:27.426Z,78
2022-11-25T05:50:34.526Z,78
2022-11-25T05:51:41.601Z,78
2022-11-25T05:53:55.306Z,78
2022-11-25T05:56:09.579Z,78
2022-11-25T05:57:16.691Z,78
2022-11-25T05:58:23.259Z,78
2022-11-25T05:59:30.325Z,78
2022-11-25T06:00:37.422Z,78
2022-11-25T06:01:44.579Z,78
2022-11-25T06:02:54.311Z,78
2022-11-25T06:03:58.227Z,78
2022-11-25T06:05:05.414Z,78
2022-11-25T06:06:12.449Z,78
2022-11-25T06:08:26.692Z,79
2022-11-25T06:09:33.251Z,79
2022-11-25T06:10:40.342Z,78
2022-11-25T06:11:47.479Z,78
2022-11-25T06:12:54.181Z,78
2022-11-25T06:14:01.625Z,78
2022-11-25T06:15:08.280Z,78
2022-11-25T06:16:15.388Z,78
2022-11-25T06:17:22.489Z,78
2022-11-25T06:18:29.580Z,78
2022-11-25T06:19:36.696Z,78
2022-11-25T06:20:43.210Z,78
2022-11-25T06:21:50.332Z,78
2022-11-25T06:22:57.489Z,78
2022-11-25T06:24:04.573Z,78
2022-11-25T06:25:11.640Z,78
2022-11-25T06:26:18.259Z,78
2022-11-25T06:27:25.451Z,78
2022-11-25T06:28:32.435Z,78
2022-11-25T06:29:39.599Z,79
2022-11-25T06:30:46.822Z,79
2022-11-25T06:31:54.311Z,79
2022-11-25T06:33:00.343Z,79
2022-11-25T06:34:07.508Z,79
2022-11-25T06:35:14.627Z,79
2022-11-25T06:36:21.667Z,79
2022-11-25T06:37:28.330Z,79
2022-11-25T06:38:35.371Z,79
2022-11-25T06:39:42.465Z,79
2022-11-25T06:41:56.703Z,79
2022-11-25T06:43:03.238Z,79
2022-11-25T06:44:10.414Z,79
2022-11-25T06:45:17.468Z,79
2022-11-25T06:46:25.367Z,79
2022-11-25T06:47:31.761Z,79
2022-11-25T06:49:45.409Z,79
2022-11-25T06:50:52.475Z,79
2022-11-25T06:51:59.623Z,79
2022-11-25T06:53:06.821Z,79
2022-11-25T06:54:13.272Z,79
2022-11-25T06:55:20.361Z,79
2022-11-25T06:57:34.651Z,79
2022-11-25T06:58:41.711Z,79
2022-11-25T06:59:48.295Z,79
2022-11-25T07:00:55.421Z,79
2022-11-25T07:02:02.590Z,79
2022-11-25T07:03:09.743Z,79
2022-11-25T07:04:16.726Z,79
2022-11-25T07:05:23.289Z,79
2022-11-25T07:06:31.423Z,79
2022-11-25T07:07:37.767Z,78
2022-11-25T07:08:44.125Z,78
2022-11-25T07:09:51.183Z,78
2022-11-25T07:10:58.271Z,78
2022-11-25T07:12:05.449Z,78
2022-11-25T07:13:12.512Z,78
2022-11-25T07:14:19.666Z,78
2022-11-25T07:15:26.244Z,78
2022-11-25T07:16:33.282Z,77
2022-11-25T07:17:40.476Z,77
2022-11-25T07:18:47.537Z,77
2022-11-25T07:19:54.670Z,77
2022-11-25T07:21:01.204Z,77
2022-11-25T07:22:08.317Z,77
2022-11-25T07:24:22.582Z,77
2022-11-25T07:25:30.819Z,77
2022-11-25T07:26:36.293Z,77
2022-11-25T07:27:43.349Z,77
2022-11-25T07:28:50.435Z,77
2022-11-25T07:31:27.141Z,77
2022-11-25T07:32:11.253Z,77
2022-11-25T07:33:18.355Z,77
2022-11-25T07:34:25.482Z,77
2022-11-25T07:35:32.536Z,77
2022-11-25T07:36:39.774Z,77
2022-11-25T07:37:46.243Z,76
2022-11-25T07:38:53.316Z,77
2022-11-25T07:40:00.417Z,76
2022-11-25T07:41:07.555Z,76
2022-11-25T07:42:14.700Z,77
2022-11-25T07:43:21.231Z,76
2022-11-25T07:44:28.464Z,76
2022-11-25T07:45:35.482Z,76
2022-11-25T07:46:42.669Z,76
2022-11-25T07:47:50.225Z,76
2022-11-25T07:48:56.250Z,76
2022-11-25T07:50:03.350Z,76
2022-11-25T07:51:10.432Z,76
2022-11-25T07:52:17.650Z,76
2022-11-25T07:53:24.731Z,76
2022-11-25T07:54:31.235Z,76
2022-11-25T07:55:38.360Z,76
2022-11-25T07:56:45.533Z,75
2022-11-25T07:57:52.591Z,75
2022-11-25T07:58:59.663Z,75
2022-11-25T08:01:13.423Z,74
2022-11-25T08:02:20.614Z,74
2022-11-25T08:03:27.592Z,74
2022-11-25T08:04:34.677Z,74
2022-11-25T08:05:41.243Z,74
2022-11-25T08:06:48.402Z,74
2022-11-25T08:07:55.580Z,74
2022-11-25T08:09:02.587Z,74
2022-11-25T08:10:09.218Z,74
2022-11-25T08:12:23.489Z,74
2022-11-25T08:13:30.458Z,74
2022-11-25T08:14:37.630Z,74
2022-11-25T08:15:44.865Z,74
2022-11-25T08:16:51.275Z,74
2022-11-25T08:17:58.437Z,75
2022-11-25T08:19:05.525Z,75
2022-11-25T08:20:12.574Z,75
2022-11-25T08:21:19.249Z,75
2022-11-25T08:22:26.342Z,75
2022-11-25T08:23:33.400Z,75
2022-11-25T08:24:40.543Z,75
2022-11-25T08:25:50.653Z,75
2022-11-25T08:26:54.276Z,76
2022-11-25T08:28:01.800Z,76
2022-11-25T08:29:09.590Z,76
2022-11-25T08:30:15.564Z,76
2022-11-25T08:31:22.684Z,76
2022-11-25T08:32:29.251Z,76
2022-11-25T08:33:36.374Z,76
2022-11-25T08:34:43.432Z,76
2022-11-25T08:35:50.541Z,76
2022-11-25T08:36:57.676Z,76
2022-11-25T08:38:04.288Z,76
2022-11-25T08:39:36.101Z,76
2022-11-25T08:40:18.478Z,77
2022-11-25T08:41:25.541Z,77
2022-11-25T08:42:32.687Z,77
2022-11-25T08:43:39.249Z,77
2022-11-25T08:44:46.359Z,77
2022-11-25T08:45:53.419Z,77
2022-11-25T08:47:00.626Z,77
2022-11-25T08:48:07.695Z,77
2022-11-25T08:49:14.240Z,77
2022-11-25T08:50:21.344Z,77
2022-11-25T08:53:42.751Z,77
2022-11-25T08:54:49.301Z,77
2022-11-25T08:55:56.924Z,77
2022-11-25T08:57:03.458Z,78
2022-11-25T08:58:10.562Z,78
2022-11-25T08:59:17.699Z,78
2022-11-25T09:00:24.267Z,78
2022-11-25T09:01:31.466Z,78
2022-11-25T09:02:38.565Z,78
2022-11-25T09:04:52.671Z,79
2022-11-25T09:05:59.280Z,79
2022-11-25T09:07:06.408Z,79
2022-11-25T09:08:13.506Z,79
2022-11-25T09:09:20.743Z,79
2022-11-25T09:10:28.270Z,79
2022-11-25T09:11:34.353Z,79
2022-11-25T09:12:41.420Z,80
2022-11-25T09:13:48.631Z,80
2022-11-25T09:14:55.621Z,80
2022-11-25T09:16:02.253Z,80
2022-11-25T09:17:09.321Z,80
2022-11-25T09:18:16.372Z,80
2022-11-25T09:19:23.448Z,80
2022-11-25T09:20:30.586Z,80
2022-11-25T09:21:37.183Z,80
2022-11-25T09:22:44.323Z,80
2022-11-25T09:24:58.492Z,80
2022-11-25T09:26:05.636Z,81
2022-11-25T09:27:12.144Z,80
2022-11-25T09:28:19.871Z,81
2022-11-25T09:29:26.402Z,81
2022-11-25T09:30:33.509Z,80
2022-11-25T09:31:40.631Z,80
2022-11-25T09:32:47.240Z,80
2022-11-25T09:35:01.363Z,80
2022-11-25T09:36:08.543Z,80
2022-11-25T09:37:15.651Z,80
2022-11-25T09:38:22.221Z,80
2022-11-25T09:39:29.355Z,80
2022-11-25T09:40:36.454Z,80
2022-11-25T09:41:43.514Z,80
2022-11-25T09:42:50.647Z,80
2022-11-25T09:43:57.203Z,80
2022-11-25T09:45:04.476Z,80
2022-11-25T09:46:11.474Z,80
2022-11-25T09:47:18.628Z,80
2022-11-25T09:48:25.663Z,80
2022-11-25T09:49:32.194Z,80
2022-11-25T09:50:39.326Z,80
2022-11-25T09:52:54.451Z,80
2022-11-25T09:54:00.625Z,80
2022-11-25T09:55:07.257Z,80
2022-11-25T09:56:14.443Z,80
2022-11-25T09:57:21.505Z,80
2022-11-25T09:58:28.531Z,80
2022-11-25T09:59:35.866Z,80
2022-11-25T10:00:42.228Z,80
2022-11-25T10:01:49.468Z,80
2022-11-25T10:02:56.661Z,80
2022-11-25T10:04:03.535Z,80
2022-11-25T10:05:10.641Z,80
2022-11-25T10:06:17.381Z,80
2022-11-25T10:08:31.507Z,80
2022-11-25T10:09:38.901Z,81
2022-11-25T10:10:45.687Z,81
2022-11-25T10:11:52.491Z,81
2022-11-25T10:12:59.402Z,81
2022-11-25T10:14:06.448Z,81
2022-11-25T10:16:20.709Z,81
2022-11-25T10:17:27.336Z,81
2022-11-25T10:18:34.373Z,81
2022-11-25T10:19:41.426Z,81
2022-11-25T10:20:48.568Z,81
2022-11-25T10:22:05.042Z,82
2022-11-25T10:23:02.287Z,82
2022-11-25T10:24:09.397Z,82
2022-11-25T10:25:16.489Z,82
2022-11-25T10:26:23.572Z,82
2022-11-25T10:27:30.705Z,82
2022-11-25T10:28:37.317Z,82
2022-11-25T10:29:44.381Z,82
2022-11-25T10:30:51.539Z,82
2022-11-25T10:31:58.584Z,82
2022-11-25T10:33:06.306Z,82
2022-11-25T10:34:12.347Z,83
2022-11-25T10:35:19.383Z,83
2022-11-25T10:36:26.501Z,83
2022-11-25T10:37:33.566Z,83
2022-11-25T10:38:40.780Z,83
2022-11-25T10:39:47.315Z,83
2022-11-25T10:40:54.394Z,83
2022-11-25T10:42:01.501Z,83
2022-11-25T10:43:08.653Z,84
2022-11-25T10:44:15.766Z,84
2022-11-25T10:45:22.254Z,84
2022-11-25T10:46:49.722Z,84
2022-11-25T10:47:36.792Z,84
2022-11-25T10:48:44.567Z,84
2022-11-25T10:49:50.314Z,85
2022-11-25T10:50:57.305Z,85
2022-11-25T10:52:04.428Z,85
2022-11-25T10:53:11.469Z,86
2022-11-25T10:54:25.538Z,86
2022-11-25T10:55:25.778Z,86
2022-11-25T10:57:39.493Z,86
2022-11-25T10:58:46.563Z,87
2022-11-25T10:59:53.582Z,87
2022-11-25T11:01:00.795Z,87
2022-11-25T11:02:07.398Z,87
2022-11-25T11:03:14.546Z,87
2022-11-25T11:04:21.494Z,87
2022-11-25T11:05:28.684Z,87
2022-11-25T11:06:35.309Z,87
2022-11-25T11:07:42.428Z,87
2022-11-25T11:08:49.458Z,87
2022-11-25T11:09:56.503Z,87
2022-11-25T11:12:10.249Z,87
2022-11-25T11:13:17.352Z,87
2022-11-25T11:14:24.465Z,87
2022-11-25T11:15:31.502Z,87
2022-11-25T11:16:38.761Z,87
2022-11-25T11:17:45.308Z,87
2022-11-25T11:18:52.312Z,86
2022-11-25T11:19:59.498Z,86
2022-11-25T11:21:06.542Z,86
2022-11-25T11:23:20.232Z,86
2022-11-25T11:24:27.393Z,86
2022-11-25T11:25:34.472Z,86
2022-11-25T11:26:41.576Z,86
2022-11-25T11:27:48.771Z,86
2022-11-25T11:28:55.259Z,87
2022-11-25T11:30:02.362Z,87
2022-11-25T11:31:09.544Z,87
2022-11-25T11:32:16.638Z,87
2022-11-25T11:33:23.671Z,87
2022-11-25T11:34:30.287Z,87
2022-11-25T11:35:41.673Z,87
2022-11-25T11:36:44.486Z,87
2022-11-25T11:38:58.713Z,87
2022-11-25T11:40:05.287Z,87
2022-11-25T11:41:12.354Z,87
2022-11-25T11:42:19.532Z,87
2022-11-25T11:43:26.628Z,87
2022-11-25T11:44:33.875Z,87
2022-11-25T11:45:40.293Z,87
2022-11-25T11:46:47.443Z,87
2022-11-25T11:49:01.659Z,87
2022-11-25T11:51:15.336Z,86
2022-11-25T11:52:22.343Z,86
2022-11-25T11:53:29.547Z,86
2022-11-25T11:54:37.182Z,86
2022-11-25T11:55:44.224Z,86
2022-11-25T11:56:55.005Z,86
2022-11-25T11:57:57.399Z,86
2022-11-25T11:59:04.536Z,86
2022-11-25T12:00:11.617Z,86
2022-11-25T12:01:18.744Z,86
2022-11-25T12:02:25.459Z,86
2022-11-25T12:03:32.524Z,86
2022-11-25T12:04:39.844Z,86
2022-11-25T12:05:46.596Z,85
2022-11-25T12:06:53.674Z,85
2022-11-25T12:08:00.384Z,85
2022-11-25T12:09:07.407Z,86
2022-11-25T12:10:14.525Z,86
2022-11-25T12:11:21.645Z,86
2022-11-25T12:12:28.805Z,86
2022-11-25T12:13:35.308Z,86
2022-11-25T12:15:49.514Z,86
2022-11-25T12:16:56.701Z,86
2022-11-25T12:19:10.370Z,86
2022-11-25T12:20:17.402Z,86
2022-11-25T12:21:24.513Z,86
2022-11-25T12:22:31.701Z,86
2022-11-25T12:23:38.206Z,86
2022-11-25T12:24:45.410Z,86
2022-11-25T12:25:52.410Z,86
2022-11-25T12:26:59.581Z,86
2022-11-25T12:28:06.669Z,86
2022-11-25T12:29:13.448Z,86
2022-11-25T12:30:20.392Z,86
2022-11-25T12:31:27.707Z,86
2022-11-25T12:32:34.578Z,85
2022-11-25T12:33:41.663Z,85
2022-11-25T12:34:48.209Z,85
2022-11-25T12:35:55.594Z,84
2022-11-25T12:37:02.405Z,84
2022-11-25T12:38:09.563Z,84
2022-11-25T12:39:16.723Z,84
2022-11-25T12:40:23.278Z,84
2022-11-25T12:41:30.366Z,84
2022-11-25T12:42:37.576Z,84
2022-11-25T12:43:44.590Z,84
2022-11-25T12:44:51.662Z,84
2022-11-25T12:45:58.361Z,84
2022-11-25T12:47:05.409Z,84
2022-11-25T12:48:13.103Z,85
2022-11-25T12:49:19.605Z,85
2022-11-25T12:50:26.721Z,85
2022-11-25T12:51:33.294Z,85
2022-11-25T12:52:40.504Z,85
2022-11-25T12:53:47.499Z,85
2022-11-25T12:54:54.571Z,86
2022-11-25T12:56:01.684Z,86
2022-11-25T12:57:08.316Z,86
2022-11-25T12:58:15.529Z,86
2022-11-25T12:59:22.480Z,86
2022-11-25T13:00:42.249Z,86
2022-11-25T13:01:36.801Z,86
2022-11-25T13:02:43.291Z,86
2022-11-25T13:03:50.380Z,86
2022-11-25T13:05:07.598Z,87
2022-11-25T13:06:04.645Z,87
2022-11-25T13:07:11.908Z,87
2022-11-25T13:08:18.400Z,87
2022-11-25T13:09:25.422Z,87
2022-11-25T13:10:32.498Z,87
2022-11-25T13:11:39.947Z,87
2022-11-25T13:12:47.126Z,87
2022-11-25T13:13:53.760Z,87
2022-11-25T13:15:01.127Z,87
2022-11-25T13:17:15.216Z,88
2022-11-25T13:21:47.997Z,88
2022-11-25T13:22:49.698Z,88
2022-11-25T13:23:56.421Z,88
2022-11-25T13:25:03.275Z,88
2022-11-25T13:26:10.371Z,87
2022-11-25T13:27:17.675Z,87
2022-11-25T13:28:24.586Z,87
2022-11-25T13:29:31.290Z,87
2022-11-25T13:30:38.314Z,87
2022-11-25T13:31:45.639Z,87
2022-11-25T13:32:54.420Z,86
2022-11-25T13:33:59.636Z,86
2022-11-25T13:35:06.436Z,86
2022-11-25T13:36:13.638Z,86
2022-11-25T13:37:20.683Z,86
2022-11-25T13:38:27.704Z,86
2022-11-25T13:39:34.631Z,86
2022-11-25T13:40:50.159Z,86
2022-11-25T13:41:48.421Z,86
2022-11-25T13:42:55.506Z,85
2022-11-25T13:44:02.672Z,85
2022-11-25T13:45:09.673Z,85
2022-11-25T13:46:16.467Z,85
2022-11-25T13:47:23.460Z,85
2022-11-25T13:49:37.651Z,85
2022-11-25T13:51:51.195Z,84
2022-11-25T13:52:58.972Z,84
2022-11-25T13:54:05.486Z,84
2022-11-25T13:55:12.554Z,84
2022-11-25T13:56:19.654Z,83
2022-11-25T13:57:26.240Z,83
2022-11-25T13:58:33.470Z,83
2022-11-25T13:59:41.000Z,83
2022-11-25T14:00:47.603Z,83
2022-11-25T14:01:54.777Z,83
2022-11-25T14:03:01.382Z,83
2022-11-25T14:04:08.438Z,83
2022-11-25T14:05:15.517Z,83
2022-11-25T14:06:22.542Z,83
2022-11-25T14:07:30.019Z,83
2022-11-25T14:08:36.260Z,83
2022-11-25T14:09:43.411Z,83
2022-11-25T14:10:50.481Z,82
2022-11-25T14:11:57.597Z,82
2022-11-25T14:13:04.772Z,82
2022-11-25T14:14:11.234Z,82
2022-11-25T14:15:18.390Z,82
2022-11-25T14:17:32.684Z,81
2022-11-25T14:19:55.405Z,81
2022-11-25T14:20:53.403Z,81
2022-11-25T14:23:07.750Z,81
2022-11-25T14:24:14.691Z,81
2022-11-25T14:25:21.244Z,81
2022-11-25T14:26:48.741Z,81
2022-11-25T14:27:35.549Z,81
2022-11-25T14:28:42.745Z,81
2022-11-25T14:29:49.730Z,81
2022-11-25T14:30:56.487Z,81
2022-11-25T14:32:03.402Z,81
2022-11-25T14:33:10.555Z,81
2022-11-25T14:34:17.665Z,80
2022-11-25T14:35:24.213Z,80
2022-11-25T14:36:31.248Z,80
2022-11-25T14:37:38.492Z,80
2022-11-25T14:38:45.680Z,80
2022-11-25T14:39:52.616Z,80
2022-11-25T14:41:00.830Z,80
2022-11-25T14:42:06.355Z,80
2022-11-25T14:43:13.369Z,80
2022-11-25T14:44:20.472Z,80
2022-11-25T14:45:27.822Z,80
2022-11-25T14:46:34.241Z,80
2022-11-25T14:47:41.373Z,80
2022-11-25T14:48:48.484Z,80
2022-11-25T14:50:18.914Z,80
2022-11-25T14:51:02.585Z,80
2022-11-25T14:52:09.250Z,80
2022-11-25T14:53:16.356Z,80
2022-11-25T14:54:23.462Z,80
2022-11-25T14:55:30.592Z,80
2022-11-25T14:56:37.624Z,80
2022-11-25T14:57:44.497Z,80
2022-11-25T14:58:51.370Z,80
2022-11-25T14:59:58.434Z,80
2022-11-25T15:01:05.521Z,80
2022-11-25T15:02:12.642Z,80
2022-11-25T15:03:19.342Z,79
2022-11-25T15:04:26.407Z,79
2022-11-25T15:05:33.407Z,79
2022-11-25T15:06:40.607Z,79
2022-11-25T15:07:47.764Z,79
2022-11-25T15:08:54.275Z,79
2022-11-25T15:10:01.372Z,79
2022-11-25T15:11:08.519Z,79
2022-11-25T15:12:15.591Z,78
2022-11-25T15:13:22.764Z,78
2022-11-25T15:14:29.237Z,78
2022-11-25T15:15:36.331Z,78
2022-11-25T15:16:43.564Z,78
2022-11-25T15:17:50.756Z,78
2022-11-25T15:18:57.207Z,78
2022-11-25T15:20:04.283Z,78
2022-11-25T15:21:11.898Z,78
2022-11-25T15:23:25.735Z,78
2022-11-25T15:24:32.635Z,78
2022-11-25T15:26:46.358Z,78
2022-11-25T15:27:53.542Z,78
2022-11-25T15:29:00.628Z,78
2022-11-25T15:30:11.655Z,78
2022-11-25T15:31:14.304Z,78
2022-11-25T15:32:21.436Z,78
2022-11-25T15:33:28.517Z,78
2022-11-25T15:34:35.580Z,78
2022-11-25T15:35:42.714Z,78
2022-11-25T15:36:54.023Z,78
2022-11-25T15:37:56.504Z,78
2022-11-25T15:39:03.512Z,78
2022-11-25T15:40:10.673Z,78
2022-11-25T15:41:17.804Z,78
2022-11-25T15:42:24.325Z,78
2022-11-25T15:43:31.388Z,78
2022-11-25T15:44:38.535Z,78
2022-11-25T15:45:45.777Z,78
2022-11-25T15:46:52.261Z,78
2022-11-25T15:47:59.440Z,78
2022-11-25T15:49:06.391Z,78
2022-11-25T15:50:13.534Z,78
2022-11-25T15:51:20.799Z,78
2022-11-25T15:52:27.786Z,78
2022-11-25T15:53:34.424Z,78
2022-11-25T15:54:41.501Z,77
2022-11-25T15:55:48.747Z,77
2022-11-25T15:56:55.746Z,77
2022-11-25T15:58:02.354Z,77
2022-11-25T15:59:09.560Z,77
2022-11-25T16:00:16.369Z,77
2022-11-25T16:01:23.920Z,77
2022-11-25T16:02:30.998Z,77
2022-11-25T16:04:44.597Z,77
2022-11-25T16:05:51.571Z,77
2022-11-25T16:06:58.687Z,77
2022-11-25T16:08:05.785Z,77
2022-11-25T16:09:12.304Z,77
2022-11-25T16:10:19.468Z,77
2022-11-25T16:11:26.601Z,77
2022-11-25T16:13:40.967Z,77
2022-11-25T16:14:47.394Z,78
2022-11-25T16:15:54.476Z,78
2022-11-25T16:17:01.531Z,77
2022-11-25T16:18:24.890Z,77
2022-11-25T16:19:15.879Z,77
2022-11-25T16:20:22.195Z,77
2022-11-25T16:21:29.477Z,77
2022-11-25T16:22:36.740Z,77
2022-11-25T16:23:43.706Z,77
2022-11-25T16:24:50.828Z,77
2022-11-25T16:25:57.390Z,77
2022-11-25T16:27:04.627Z,77
2022-11-25T16:28:11.753Z,77
2022-11-25T16:30:25.633Z,77
2022-11-25T16:31:32.267Z,77
2022-11-25T16:32:39.336Z,77
2022-11-25T16:33:46.600Z,77
2022-11-25T16:34:53.640Z,77
2022-11-25T16:36:04.152Z,77
2022-11-25T16:37:07.248Z,77
2022-11-25T16:38:14.479Z,77
2022-11-25T16:39:21.560Z,77
2022-11-25T16:40:28.802Z,77
2022-11-25T16:41:35.824Z,77
2022-11-25T16:43:49.525Z,76
2022-11-25T16:46:03.614Z,76
2022-11-25T16:47:10.657Z,76
2022-11-25T16:48:17.429Z,76
2022-11-25T16:49:25.063Z,76
2022-11-25T16:50:31.718Z,76
2022-11-25T16:51:38.582Z,76
2022-11-25T16:52:45.531Z,76
2022-11-25T16:53:52.342Z,76
2022-11-25T16:54:59.371Z,76
2022-11-25T16:56:06.710Z,77
2022-11-25T16:57:13.758Z,77
2022-11-25T16:58:20.309Z,77
2022-11-25T16:59:27.279Z,77
2022-11-25T17:00:34.572Z,77
2022-11-25T17:01:41.524Z,77
2022-11-25T17:02:48.682Z,77
2022-11-25T17:03:55.499Z,77
2022-11-25T17:05:02.257Z,77
2022-11-25T17:06:09.384Z,78
2022-11-25T17:07:32.246Z,78
2022-11-25T17:08:23.729Z,78
2022-11-25T17:09:30.383Z,78